createdAt,value
2022-11-22T00:02:09.514Z,8.32
2022-11-22T00:05:11.752Z,8.65
2022-11-22T00:08:16.638Z,10.88
2022-11-22T00:11:18.149Z,9.85
2022-11-22T00:14:19.701Z,7.50
2022-11-22T00:17:21.228Z,8.95
2022-11-22T00:20:22.776Z,10.23
2022-11-22T00:23:24.335Z,9.32
2022-11-22T00:26:25.883Z,8.75
2022-11-22T00:29:27.802Z,12.30
2022-11-22T00:32:29.556Z,10.82
2022-11-22T00:35:31.194Z,6.97
2022-11-22T00:38:32.756Z,11.68
2022-11-22T00:41:34.371Z,6.05
2022-11-22T00:44:36.503Z,9.38
2022-11-22T00:47:38.072Z,10.00
2022-11-22T00:50:39.698Z,10.75
2022-11-22T00:53:41.240Z,9.63
2022-11-22T00:56:42.822Z,6.95
2022-11-22T00:59:44.344Z,9.38
2022-11-22T01:02:45.896Z,11.13
2022-11-22T01:05:47.458Z,9.63
2022-11-22T01:08:49.223Z,5.13
2022-11-22T01:11:51.533Z,7.57
2022-11-22T01:14:53.100Z,9.70
2022-11-22T01:17:54.688Z,8.30
2022-11-22T01:20:56.226Z,9.57
2022-11-22T01:23:57.905Z,6.78
2022-11-22T01:26:59.417Z,10.25
2022-11-22T01:30:00.940Z,8.68
2022-11-22T01:33:03.777Z,10.82
2022-11-22T01:36:05.480Z,11.95
2022-11-22T01:39:07.004Z,11.15
2022-11-22T01:42:10.699Z,11.90
2022-11-22T01:45:30.365Z,8.70
2022-11-22T01:49:00.590Z,10.90
2022-11-22T01:52:07.652Z,8.88
2022-11-22T01:55:12.725Z,8.55
2022-11-22T01:58:15.852Z,6.70
2022-11-22T02:01:17.527Z,11.35
2022-11-22T02:04:20.522Z,10.02
2022-11-22T02:07:34.987Z,11.50
2022-11-22T02:10:43.558Z,14.20
2022-11-22T02:13:45.669Z,8.50
2022-11-22T02:16:48.402Z,9.98
2022-11-22T02:19:50.838Z,11.02
2022-11-22T02:23:18.592Z,13.13
2022-11-22T02:26:21.199Z,12.60
2022-11-22T02:29:22.816Z,14.05
2022-11-22T02:32:24.426Z,12.65
2022-11-22T02:35:28.047Z,9.88
2022-11-22T02:38:34.814Z,13.07
2022-11-22T02:41:37.737Z,15.18
2022-11-22T02:44:40.990Z,12.82
2022-11-22T02:47:42.507Z,15.40
2022-11-22T02:50:44.580Z,17.98
2022-11-22T02:53:47.722Z,9.25
2022-11-22T02:56:49.327Z,17.90
2022-11-22T02:59:50.837Z,15.75
2022-11-22T03:02:52.683Z,11.68
2022-11-22T03:05:54.182Z,12.85
2022-11-22T03:08:56.895Z,13.63
2022-11-22T03:11:58.542Z,11.80
2022-11-22T03:15:00.063Z,16.13
2022-11-22T03:18:03.533Z,13.68
2022-11-22T03:21:07.056Z,14.68
2022-11-22T03:24:09.588Z,15.95
2022-11-22T03:27:11.122Z,16.60
2022-11-22T03:30:13.491Z,14.73
2022-11-22T03:33:15.082Z,11.43
2022-11-22T03:36:16.762Z,17.52
2022-11-22T03:39:18.320Z,12.68
2022-11-22T03:42:22.955Z,15.80
2022-11-22T03:45:24.501Z,12.85
2022-11-22T03:48:26.001Z,15.13
2022-11-22T03:51:27.810Z,19.25
2022-11-22T03:54:29.315Z,16.15
2022-11-22T03:57:30.921Z,14.02
2022-11-22T04:00:33.034Z,15.05
2022-11-22T04:03:34.561Z,12.65
2022-11-22T04:06:36.081Z,16.52
2022-11-22T04:09:37.703Z,12.02
2022-11-22T04:12:39.268Z,16.10
2022-11-22T04:15:40.806Z,19.90
2022-11-22T04:18:42.524Z,14.52
2022-11-22T04:21:44.063Z,19.45
2022-11-22T04:25:03.952Z,14.57
2022-11-22T04:28:07.312Z,16.90
2022-11-22T04:31:32.004Z,32.90
2022-11-22T04:34:34.233Z,13.55
2022-11-22T04:37:37.415Z,18.80
2022-11-22T04:40:48.192Z,18.75
2022-11-22T04:47:34.808Z,22.80
2022-11-22T04:50:55.187Z,16.02
2022-11-22T04:53:56.940Z,17.83
2022-11-22T04:56:58.804Z,16.67
2022-11-22T05:00:00.348Z,22.02
2022-11-22T05:03:02.945Z,25.58
2022-11-22T05:06:11.333Z,17.40
2022-11-22T05:09:12.937Z,23.13
2022-11-22T05:12:14.693Z,12.98
2022-11-22T05:15:16.558Z,20.83
2022-11-22T05:18:19.537Z,19.80
2022-11-22T05:21:21.114Z,22.27
2022-11-22T05:24:22.643Z,20.92
2022-11-22T05:27:24.187Z,16.25
2022-11-22T05:30:25.718Z,14.73
2022-11-22T05:33:27.295Z,22.58
2022-11-22T05:36:32.346Z,17.95
2022-11-22T05:39:33.910Z,10.13
2022-11-22T05:42:36.030Z,16.88
2022-11-22T05:45:37.662Z,14.43
2022-11-22T05:48:41.350Z,21.52
2022-11-22T05:51:42.917Z,18.70
2022-11-22T05:54:44.494Z,20.75
2022-11-22T05:57:46.124Z,17.80
2022-11-22T06:00:47.678Z,20.73
2022-11-22T06:03:50.174Z,18.13
2022-11-22T06:06:51.738Z,15.35
2022-11-22T06:09:53.303Z,19.00
2022-11-22T06:12:55.380Z,20.35
2022-11-22T06:16:00.332Z,21.90
2022-11-22T06:19:01.944Z,22.42
2022-11-22T06:22:03.592Z,16.63
2022-11-22T06:25:06.696Z,16.27
2022-11-22T06:28:08.530Z,17.92
2022-11-22T06:31:13.491Z,14.90
2022-11-22T06:34:15.100Z,18.73
2022-11-22T06:37:16.719Z,17.58
2022-11-22T06:40:18.899Z,18.60
2022-11-22T06:43:20.498Z,14.43
2022-11-22T06:46:24.056Z,23.40
2022-11-22T06:49:25.737Z,17.80
2022-11-22T06:52:27.301Z,17.33
2022-11-22T06:55:49.471Z,19.58
2022-11-22T06:58:51.638Z,19.40
2022-11-22T07:01:53.252Z,21.95
2022-11-22T07:05:17.669Z,17.25
2022-11-22T07:08:16.514Z,16.35
2022-11-22T07:11:23.850Z,20.33
2022-11-22T07:14:25.402Z,21.33
2022-11-22T07:17:26.946Z,14.80
2022-11-22T07:20:28.532Z,18.55
2022-11-22T07:23:30.634Z,24.60
2022-11-22T07:26:32.238Z,17.73
2022-11-22T07:29:33.948Z,14.52
2022-11-22T07:32:35.501Z,19.63
2022-11-22T07:35:37.210Z,18.20
2022-11-22T07:38:39.159Z,19.13
2022-11-22T07:41:40.790Z,33.17
2022-11-22T07:44:42.371Z,20.85
2022-11-22T07:47:44.025Z,16.50
2022-11-22T07:50:45.606Z,17.60
2022-11-22T07:53:47.537Z,15.75
2022-11-22T07:56:49.051Z,20.05
2022-11-22T07:59:50.599Z,19.00
2022-11-22T08:02:52.282Z,22.73
2022-11-22T08:05:59.892Z,14.05
2022-11-22T08:09:02.379Z,18.17
2022-11-22T08:12:04.305Z,21.73
2022-11-22T08:15:07.334Z,14.48
2022-11-22T08:18:08.920Z,15.75
2022-11-22T08:21:13.978Z,20.98
2022-11-22T08:24:16.320Z,20.25
2022-11-22T08:27:17.895Z,21.02
2022-11-22T08:30:19.578Z,21.50
2022-11-22T08:33:23.642Z,23.52
2022-11-22T08:36:27.797Z,14.15
2022-11-22T08:39:29.794Z,15.65
2022-11-22T08:42:31.834Z,14.02
2022-11-22T08:45:33.940Z,15.48
2022-11-22T08:48:37.323Z,15.32
2022-11-22T08:51:44.735Z,15.70
2022-11-22T08:54:46.326Z,11.82
2022-11-22T08:57:48.035Z,20.48
2022-11-22T09:00:49.719Z,13.32
2022-11-22T09:03:51.591Z,15.98
2022-11-22T09:10:14.813Z,11.80
2022-11-22T09:13:16.439Z,17.23
2022-11-22T09:16:19.953Z,12.52
2022-11-22T09:19:21.643Z,11.73
2022-11-22T09:22:28.234Z,13.23
2022-11-22T09:25:30.534Z,13.02
2022-11-22T09:28:32.935Z,15.93
2022-11-22T09:31:34.582Z,13.15
2022-11-22T09:34:36.153Z,19.63
2022-11-22T09:37:39.820Z,13.25
2022-11-22T09:40:46.721Z,15.82
2022-11-22T09:44:06.396Z,13.02
2022-11-22T09:48:00.693Z,13.60
2022-11-22T09:51:17.180Z,11.98
2022-11-22T09:54:25.593Z,10.10
2022-11-22T09:57:48.783Z,11.68
2022-11-22T10:00:52.444Z,14.88
2022-11-22T10:03:56.748Z,15.23
2022-11-22T10:07:02.467Z,15.57
2022-11-22T10:10:18.849Z,8.32
2022-11-22T10:13:41.301Z,11.65
2022-11-22T10:16:56.572Z,17.05
2022-11-22T10:20:02.000Z,10.40
2022-11-22T10:23:12.856Z,16.15
2022-11-22T10:26:14.363Z,13.90
2022-11-22T10:29:23.042Z,12.93
2022-11-22T10:32:56.622Z,10.98
2022-11-22T10:36:23.398Z,17.45
2022-11-22T10:39:37.167Z,18.15
2022-11-22T10:43:14.196Z,11.43
2022-11-22T10:46:46.056Z,10.15
2022-11-22T10:49:51.477Z,10.88
2022-11-22T10:53:11.241Z,14.02
2022-11-22T10:56:41.485Z,13.50
2022-11-22T11:00:04.848Z,10.63
2022-11-22T11:03:28.377Z,10.63
2022-11-22T11:07:10.364Z,12.52
2022-11-22T11:10:26.312Z,8.55
2022-11-22T11:13:43.606Z,10.60
2022-11-22T11:16:46.215Z,9.45
2022-11-22T11:19:49.562Z,9.02
2022-11-22T11:23:13.642Z,10.93
2022-11-22T11:26:26.567Z,10.13
2022-11-22T11:29:38.361Z,9.77
2022-11-22T11:32:52.545Z,9.32
2022-11-22T11:36:07.501Z,11.57
2022-11-22T11:39:30.608Z,9.27
2022-11-22T11:42:34.932Z,5.60
2022-11-22T11:45:36.555Z,10.50
2022-11-22T11:48:38.363Z,9.45
2022-11-22T11:51:57.625Z,5.95
2022-11-22T11:55:02.087Z,7.28
2022-11-22T11:58:20.751Z,8.18
2022-11-22T12:01:24.314Z,10.32
2022-11-22T12:04:30.179Z,13.25
2022-11-22T12:07:34.761Z,12.48
2022-11-22T12:11:04.057Z,6.00
2022-11-22T12:14:30.420Z,9.07
2022-11-22T12:17:39.014Z,6.63
2022-11-22T12:20:49.610Z,8.50
2022-11-22T12:24:13.457Z,8.55
2022-11-22T12:27:21.211Z,12.13
2022-11-22T12:30:23.760Z,8.02
2022-11-22T12:33:43.746Z,5.68
2022-11-22T12:36:58.060Z,9.00
2022-11-22T12:40:06.138Z,6.53
2022-11-22T12:43:34.725Z,9.43
2022-11-22T12:46:44.119Z,5.18
2022-11-22T12:50:10.752Z,6.63
2022-11-22T12:53:28.550Z,5.50
2022-11-22T12:56:34.268Z,4.50
2022-11-22T12:59:47.468Z,7.07
2022-11-22T13:03:15.786Z,6.93
2022-11-22T13:06:22.035Z,5.20
2022-11-22T13:09:30.223Z,6.30
2022-11-22T13:12:36.085Z,6.18
2022-11-22T13:15:40.533Z,2.85
2022-11-22T13:18:49.935Z,11.30
2022-11-22T13:22:00.829Z,8.05
2022-11-22T13:25:10.191Z,6.70
2022-11-22T13:28:18.795Z,8.20
2022-11-22T13:31:20.593Z,5.65
2022-11-22T13:34:26.470Z,7.55
2022-11-22T13:37:30.228Z,5.93
2022-11-22T13:40:37.411Z,6.35
2022-11-22T13:43:49.732Z,3.80
2022-11-22T13:46:57.354Z,6.75
2022-11-22T13:49:58.969Z,5.22
2022-11-22T13:53:18.642Z,5.82
2022-11-22T13:56:20.188Z,3.65
2022-11-22T13:59:21.806Z,4.30
2022-11-22T14:02:24.248Z,3.33
2022-11-22T14:05:33.456Z,7.68
2022-11-22T14:08:41.359Z,4.13
2022-11-22T14:12:01.048Z,4.72
2022-11-22T14:15:39.820Z,5.65
2022-11-22T14:19:09.433Z,4.22
2022-11-22T14:22:37.375Z,6.20
2022-11-22T14:26:02.977Z,5.05
2022-11-22T14:29:16.892Z,2.50
2022-11-22T14:32:26.107Z,3.17
2022-11-22T14:35:36.426Z,4.22
2022-11-22T14:38:42.732Z,4.78
2022-11-22T14:41:44.573Z,4.57
2022-11-22T14:44:49.222Z,8.75
2022-11-22T14:47:57.977Z,6.03
2022-11-22T14:51:08.135Z,4.53
2022-11-22T14:54:46.577Z,3.35
2022-11-22T14:57:57.190Z,5.13
2022-11-22T15:01:30.127Z,5.18
2022-11-22T15:09:13.535Z,10.65
2022-11-22T15:09:16.587Z,7.97
2022-11-22T15:12:36.349Z,6.32
2022-11-22T15:58:49.648Z,1.50
2022-11-22T16:01:57.153Z,2.88
2022-11-22T16:06:05.996Z,1.63
2022-11-22T16:08:26.635Z,2.00
2022-11-22T16:11:36.140Z,1.33
2022-11-22T16:14:49.542Z,1.60
2022-11-22T16:18:10.270Z,3.55
2022-11-22T16:21:11.818Z,3.08
2022-11-22T16:24:18.585Z,2.97
2022-11-22T16:27:20.148Z,1.25
2022-11-22T16:30:23.764Z,1.17
2022-11-22T16:33:25.991Z,2.65
2022-11-22T16:36:31.974Z,2.22
2022-11-22T16:39:33.939Z,3.63
2022-11-22T16:42:38.165Z,3.78
2022-11-22T16:45:39.679Z,3.40
2022-11-22T16:48:41.941Z,3.60
2022-11-22T16:51:44.592Z,7.97
2022-11-22T16:54:46.122Z,1.75
2022-11-22T16:57:47.746Z,4.50
2022-11-22T17:00:50.764Z,3.65
2022-11-22T17:03:57.513Z,1.85
2022-11-22T17:06:59.129Z,2.35
2022-11-22T17:10:00.725Z,3.33
2022-11-22T17:13:02.247Z,3.63
2022-11-22T17:16:04.071Z,1.52
2022-11-22T17:19:30.324Z,3.42
2022-11-22T17:22:30.540Z,2.55
2022-11-22T17:25:32.059Z,2.92
2022-11-22T17:28:33.599Z,4.22
2022-11-22T17:31:35.606Z,2.95
2022-11-22T17:34:37.495Z,2.47
2022-11-22T17:37:39.157Z,3.67
2022-11-22T17:40:40.792Z,1.33
2022-11-22T17:43:42.339Z,3.35
2022-11-22T17:46:47.275Z,2.28
2022-11-22T17:49:49.433Z,4.38
2022-11-22T17:52:52.884Z,5.68
2022-11-22T17:56:09.853Z,5.50
2022-11-22T17:59:12.247Z,5.40
2022-11-22T18:02:13.807Z,2.88
2022-11-22T18:05:15.446Z,3.47
2022-11-22T18:08:16.967Z,3.10
2022-11-22T18:11:18.598Z,3.90
2022-11-22T18:14:20.199Z,2.85
2022-11-22T18:17:21.946Z,2.40
2022-11-22T18:20:23.543Z,2.08
2022-11-22T18:23:30.947Z,3.97
2022-11-22T18:26:40.966Z,5.20
2022-11-22T18:29:43.276Z,4.82
2022-11-22T18:32:44.943Z,5.80
2022-11-22T18:35:56.164Z,9.55
2022-11-22T18:38:58.112Z,3.33
2022-11-22T18:41:59.895Z,4.22
2022-11-22T18:45:01.483Z,3.67
2022-11-22T18:48:03.470Z,2.47
2022-11-22T18:51:08.424Z,4.53
2022-11-22T18:54:10.583Z,2.15
2022-11-22T18:57:12.114Z,3.78
2022-11-22T19:00:14.358Z,2.42
2022-11-22T19:03:16.012Z,4.13
2022-11-22T19:06:19.221Z,4.43
2022-11-22T19:09:20.775Z,6.78
2022-11-22T19:12:22.517Z,6.15
2022-11-22T19:15:24.060Z,5.90
2022-11-22T19:18:25.651Z,5.38
2022-11-22T19:21:29.664Z,4.57
2022-11-22T19:24:31.844Z,5.25
2022-11-22T19:27:33.766Z,5.25
2022-11-22T19:30:39.827Z,7.88
2022-11-22T19:33:45.545Z,10.35
2022-11-22T19:36:47.135Z,4.55
2022-11-22T19:39:49.047Z,6.78
2022-11-22T19:42:50.568Z,3.20
2022-11-22T19:45:52.114Z,6.10
2022-11-22T19:48:55.451Z,6.20
2022-11-22T19:51:57.015Z,3.63
2022-11-22T19:54:58.570Z,2.35
2022-11-22T19:58:00.598Z,4.07
2022-11-22T20:01:13.221Z,2.33
2022-11-22T20:04:15.642Z,4.53
2022-11-22T20:07:18.018Z,3.70
2022-11-22T20:10:19.586Z,2.97
2022-11-22T20:13:21.174Z,4.22
2022-11-22T20:16:25.325Z,3.05
2022-11-22T20:19:32.652Z,2.95
2022-11-22T20:22:36.199Z,3.50
2022-11-22T20:25:41.036Z,3.33
2022-11-22T20:28:44.579Z,2.63
2022-11-22T20:31:46.181Z,3.42
2022-11-22T20:34:47.718Z,4.75
2022-11-22T20:37:49.303Z,3.30
2022-11-22T20:40:56.251Z,5.30
2022-11-22T20:43:57.907Z,3.63
2022-11-22T20:47:00.844Z,6.70
2022-11-22T20:50:02.376Z,3.50
2022-11-22T20:53:03.995Z,4.15
2022-11-22T20:56:05.878Z,6.05
2022-11-22T20:59:09.656Z,5.38
2022-11-22T21:02:11.312Z,6.13
2022-11-22T21:05:13.053Z,5.13
2022-11-22T21:08:16.126Z,8.23
2022-11-22T21:11:20.346Z,4.47
2022-11-22T21:14:21.922Z,7.13
2022-11-22T21:17:45.610Z,6.57
2022-11-22T21:20:47.503Z,9.18
2022-11-22T21:23:53.610Z,11.27
2022-11-22T21:26:55.231Z,7.78
2022-11-22T21:29:56.853Z,5.05
2022-11-22T21:32:58.411Z,8.98
2022-11-22T21:36:01.414Z,5.10
2022-11-22T21:39:02.994Z,7.03
2022-11-22T21:42:04.624Z,5.88
2022-11-22T21:45:06.709Z,10.18
2022-11-22T21:48:08.259Z,5.82
2022-11-22T21:51:09.815Z,7.60
2022-11-22T21:54:11.407Z,7.38
2022-11-22T21:57:13.014Z,6.53
2022-11-22T22:00:15.257Z,20.13
2022-11-22T22:03:18.467Z,7.70
2022-11-22T22:06:22.953Z,7.97
2022-11-22T22:09:24.520Z,11.02
2022-11-22T22:12:26.372Z,9.77
2022-11-22T22:15:27.924Z,7.28
2022-11-22T22:18:31.343Z,10.43
2022-11-22T22:21:32.881Z,13.52
2022-11-22T22:24:34.420Z,10.98
2022-11-22T22:27:36.018Z,9.55
2022-11-22T22:30:37.635Z,9.90
2022-11-22T22:33:41.270Z,11.60
2022-11-22T22:36:42.823Z,9.23
2022-11-22T22:39:44.445Z,7.80
2022-11-22T22:42:46.007Z,8.02
2022-11-22T22:45:47.527Z,8.40
2022-11-22T22:48:50.954Z,8.43
2022-11-22T22:51:55.063Z,8.30
2022-11-22T22:54:56.607Z,8.48
2022-11-22T22:58:01.693Z,8.90
2022-11-22T23:01:10.394Z,11.15
2022-11-22T23:04:12.087Z,8.30
2022-11-22T23:07:13.658Z,12.88
2022-11-22T23:10:15.818Z,12.38
2022-11-22T23:13:17.347Z,9.63
2022-11-22T23:16:18.919Z,11.88
2022-11-22T23:19:20.991Z,10.73
2022-11-22T23:22:25.887Z,10.55
2022-11-22T23:25:27.726Z,9.77
2022-11-22T23:28:29.620Z,10.73
2022-11-22T23:31:31.835Z,10.10
2022-11-22T23:34:33.881Z,9.88
2022-11-22T23:37:35.409Z,11.35
2022-11-22T23:40:37.110Z,10.60
2022-11-22T23:43:38.958Z,6.63
2022-11-22T23:46:40.596Z,10.80
2022-11-22T23:49:42.134Z,9.35
2022-11-22T23:52:43.926Z,9.90
2022-11-22T23:55:45.552Z,10.27
2022-11-22T23:58:47.227Z,12.25
